createdAt,value
2024-02-24T00:01:06.613Z,8.65
2024-02-24T00:03:33.356Z,5.80
2024-02-24T00:06:00.160Z,7.20
2024-02-24T00:08:26.920Z,5.23
2024-02-24T00:10:53.661Z,6.43
2024-02-24T00:13:20.566Z,7.07
2024-02-24T00:15:47.263Z,5.70
2024-02-24T00:18:14.021Z,4.80
2024-02-24T00:20:40.844Z,6.17
2024-02-24T00:23:07.588Z,5.00
2024-02-24T00:25:34.442Z,6.20
2024-02-24T00:28:01.295Z,5.40
2024-02-24T00:30:28.044Z,4.50
2024-02-24T00:32:54.893Z,5.20
2024-02-24T00:35:23.190Z,5.95
2024-02-24T00:37:49.960Z,5.28
2024-02-24T00:40:16.687Z,5.60
2024-02-24T00:42:43.429Z,6.68
2024-02-24T00:45:10.312Z,4.27
2024-02-24T00:47:37.097Z,5.22
2024-02-24T00:50:04.245Z,5.20
2024-02-24T00:52:32.855Z,4.88
2024-02-24T00:55:01.455Z,7.18
2024-02-24T00:57:28.175Z,5.47
2024-02-24T00:59:54.842Z,5.95
2024-02-24T01:02:21.712Z,3.60
2024-02-24T01:04:50.145Z,4.15
2024-02-24T01:07:17.118Z,5.32
2024-02-24T01:09:43.816Z,5.20
2024-02-24T01:12:10.737Z,7.90
2024-02-24T01:14:37.658Z,3.95
2024-02-24T01:17:04.618Z,6.40
2024-02-24T01:19:31.357Z,4.95
2024-02-24T01:21:58.797Z,5.67
2024-02-24T01:24:25.635Z,4.47
2024-02-24T01:26:52.369Z,4.75
2024-02-24T01:29:19.101Z,5.20
2024-02-24T01:31:45.844Z,3.63
2024-02-24T01:34:12.689Z,4.63
2024-02-24T01:36:39.523Z,4.70
2024-02-24T01:39:06.270Z,5.50
2024-02-24T01:41:32.950Z,3.88
2024-02-24T01:43:59.717Z,3.63
2024-02-24T01:46:26.514Z,5.00
2024-02-24T01:48:53.613Z,6.65
2024-02-24T01:51:20.394Z,5.45
2024-02-24T01:53:47.252Z,4.70
2024-02-24T01:56:14.856Z,3.53
2024-02-24T01:58:43.512Z,5.17
2024-02-24T02:01:10.845Z,5.05
2024-02-24T02:03:38.630Z,4.25
2024-02-24T02:06:06.071Z,3.72
2024-02-24T02:08:33.324Z,3.58
2024-02-24T02:11:00.090Z,5.43
2024-02-24T02:13:27.089Z,3.55
2024-02-24T02:15:57.307Z,2.85
2024-02-24T02:18:24.182Z,3.78
2024-02-24T02:20:52.790Z,4.07
2024-02-24T02:23:19.950Z,3.73
2024-02-24T02:25:46.709Z,3.45
2024-02-24T02:28:13.506Z,4.38
2024-02-24T02:30:40.213Z,4.47
2024-02-24T02:33:09.856Z,3.08
2024-02-24T02:35:37.436Z,4.43
2024-02-24T02:38:09.300Z,3.60
2024-02-24T02:40:37.108Z,4.57
2024-02-24T02:43:04.166Z,3.47
2024-02-24T02:45:30.893Z,3.13
2024-02-24T02:47:57.776Z,3.77
2024-02-24T02:50:24.663Z,3.50
2024-02-24T02:52:51.438Z,4.53
2024-02-24T02:55:19.446Z,3.65
2024-02-24T02:57:46.469Z,4.13
2024-02-24T03:00:13.798Z,3.60
2024-02-24T03:02:40.640Z,4.25
2024-02-24T03:05:07.697Z,4.72
2024-02-24T03:07:34.473Z,3.55
2024-02-24T03:10:01.281Z,4.50
2024-02-24T03:12:28.226Z,3.97
2024-02-24T03:14:54.980Z,5.18
2024-02-24T03:17:21.635Z,5.05
2024-02-24T03:19:48.426Z,3.22
2024-02-24T03:22:15.164Z,3.92
2024-02-24T03:24:45.431Z,2.57
2024-02-24T03:27:12.196Z,4.25
2024-02-24T03:29:39.024Z,3.42
2024-02-24T03:32:06.397Z,5.55
2024-02-24T03:34:33.171Z,3.42
2024-02-24T03:36:59.876Z,3.83
2024-02-24T03:39:26.585Z,3.85
2024-02-24T03:41:53.398Z,2.47
2024-02-24T03:44:20.147Z,3.60
2024-02-24T03:46:46.825Z,3.05
2024-02-24T03:49:13.732Z,3.40
2024-02-24T03:51:40.536Z,3.40
2024-02-24T03:54:07.219Z,3.47
2024-02-24T03:56:33.905Z,4.82
2024-02-24T03:59:00.683Z,4.50
2024-02-24T04:01:28.720Z,2.67
2024-02-24T04:03:56.104Z,4.35
2024-02-24T04:06:23.087Z,2.72
2024-02-24T04:08:49.980Z,6.43
2024-02-24T04:11:16.902Z,3.90
2024-02-24T04:13:43.731Z,3.63
2024-02-24T04:16:10.481Z,4.30
2024-02-24T04:18:37.265Z,4.05
2024-02-24T04:21:04.199Z,3.25
2024-02-24T04:23:31.008Z,2.92
2024-02-24T04:25:57.762Z,3.70
2024-02-24T04:28:24.475Z,3.88
2024-02-24T04:30:51.234Z,3.10
2024-02-24T04:33:18.799Z,2.63
2024-02-24T04:35:45.784Z,3.25
2024-02-24T04:38:12.947Z,3.40
2024-02-24T04:40:39.643Z,3.92
2024-02-24T04:43:06.367Z,3.88
2024-02-24T04:45:33.080Z,4.03
2024-02-24T04:48:00.075Z,5.00
2024-02-24T04:50:27.214Z,4.47
2024-02-24T04:52:53.909Z,3.83
2024-02-24T04:55:20.781Z,3.25
2024-02-24T04:57:47.543Z,5.07
2024-02-24T05:00:14.612Z,4.15
2024-02-24T05:02:41.441Z,3.80
2024-02-24T05:05:08.698Z,3.38
2024-02-24T05:07:35.549Z,4.55
2024-02-24T05:10:02.299Z,2.75
2024-02-24T05:12:29.044Z,3.35
2024-02-24T05:14:55.744Z,4.63
2024-02-24T05:17:22.765Z,3.15
2024-02-24T05:19:49.646Z,3.10
2024-02-24T05:22:16.342Z,4.70
2024-02-24T05:24:43.668Z,2.60
2024-02-24T05:27:10.679Z,4.17
2024-02-24T05:29:37.433Z,2.70
2024-02-24T05:32:04.741Z,4.30
2024-02-24T05:34:31.557Z,2.92
2024-02-24T05:36:58.398Z,3.63
2024-02-24T05:39:25.842Z,4.23
2024-02-24T05:41:52.723Z,4.45
2024-02-24T05:44:19.567Z,4.55
2024-02-24T05:46:46.388Z,3.78
2024-02-24T05:49:13.221Z,3.08
2024-02-24T05:51:43.104Z,3.90
2024-02-24T05:54:09.809Z,3.15
2024-02-24T05:56:36.656Z,3.15
2024-02-24T05:59:03.322Z,5.03
2024-02-24T06:01:30.048Z,2.58
2024-02-24T06:03:57.224Z,3.50
2024-02-24T06:06:24.202Z,2.75
2024-02-24T06:08:51.136Z,2.65
2024-02-24T06:11:18.056Z,2.38
2024-02-24T06:13:46.739Z,2.30
2024-02-24T06:16:13.739Z,4.63
2024-02-24T06:18:40.732Z,3.55
2024-02-24T06:21:07.571Z,3.97
2024-02-24T06:23:34.770Z,2.63
2024-02-24T06:26:01.671Z,2.90
2024-02-24T06:28:28.437Z,3.93
2024-02-24T06:30:55.145Z,4.25
2024-02-24T06:33:22.026Z,4.60
2024-02-24T06:35:48.854Z,4.03
2024-02-24T06:38:15.667Z,3.50
2024-02-24T06:40:46.021Z,4.70
2024-02-24T06:43:14.313Z,3.67
2024-02-24T06:45:41.170Z,3.97
2024-02-24T06:48:08.623Z,4.25
2024-02-24T06:50:35.644Z,4.82
2024-02-24T06:53:02.558Z,5.60
2024-02-24T06:55:29.301Z,2.25
2024-02-24T06:57:56.011Z,3.88
2024-02-24T07:00:23.491Z,4.15
2024-02-24T07:02:54.889Z,4.97
2024-02-24T07:05:22.098Z,4.03
2024-02-24T07:07:48.938Z,3.08
2024-02-24T07:10:15.959Z,4.75
2024-02-24T07:12:43.891Z,2.78
2024-02-24T07:15:12.872Z,3.88
2024-02-24T07:17:40.064Z,4.10
2024-02-24T07:20:07.422Z,4.53
2024-02-24T07:22:34.175Z,4.93
2024-02-24T07:25:00.904Z,3.05
2024-02-24T07:27:27.731Z,2.95
2024-02-24T07:29:55.131Z,5.20
2024-02-24T07:32:22.021Z,3.08
2024-02-24T07:34:49.666Z,2.70
2024-02-24T07:37:16.643Z,3.50
2024-02-24T07:39:44.908Z,3.88
2024-02-24T07:42:12.214Z,4.87
2024-02-24T07:44:39.565Z,3.47
2024-02-24T07:47:08.118Z,3.65
2024-02-24T07:49:35.044Z,3.78
2024-02-24T07:52:01.873Z,4.15
2024-02-24T07:54:28.660Z,4.23
2024-02-24T07:56:55.482Z,5.43
2024-02-24T07:59:22.338Z,4.18
2024-02-24T08:01:49.062Z,4.30
2024-02-24T08:04:16.420Z,5.95
2024-02-24T08:06:43.572Z,5.30
2024-02-24T08:09:10.301Z,3.20
2024-02-24T08:11:41.887Z,5.13
2024-02-24T08:14:09.562Z,4.65
2024-02-24T08:16:36.987Z,4.93
2024-02-24T08:19:04.341Z,5.37
2024-02-24T08:21:32.801Z,5.13
2024-02-24T08:23:59.748Z,4.32
2024-02-24T08:26:26.567Z,6.05
2024-02-24T08:28:53.353Z,5.80
2024-02-24T08:31:20.212Z,4.77
2024-02-24T08:33:47.212Z,4.13
2024-02-24T08:36:17.574Z,7.18
2024-02-24T08:38:45.177Z,3.72
2024-02-24T08:41:11.934Z,3.17
2024-02-24T08:43:38.689Z,3.27
2024-02-24T08:46:07.109Z,3.60
2024-02-24T08:48:35.428Z,4.60
2024-02-24T08:51:02.404Z,4.30
2024-02-24T08:53:29.138Z,4.80
2024-02-24T08:55:55.984Z,6.00
2024-02-24T08:58:22.740Z,5.53
2024-02-24T09:00:49.562Z,6.05
2024-02-24T09:03:17.710Z,4.95
2024-02-24T09:05:44.642Z,5.30
2024-02-24T09:08:11.506Z,6.30
2024-02-24T09:10:38.343Z,3.50
2024-02-24T09:13:05.025Z,5.22
2024-02-24T09:15:32.498Z,3.60
2024-02-24T09:17:59.912Z,7.30
2024-02-24T09:20:27.651Z,4.03
2024-02-24T09:22:54.334Z,2.88
2024-02-24T09:25:22.026Z,4.05
2024-02-24T09:27:49.818Z,4.90
2024-02-24T09:30:16.623Z,3.58
2024-02-24T09:32:43.619Z,4.10
2024-02-24T09:35:10.917Z,4.95
2024-02-24T09:37:37.829Z,5.00
2024-02-24T09:40:08.088Z,4.18
2024-02-24T09:42:35.102Z,5.13
2024-02-24T09:45:03.885Z,4.27
2024-02-24T09:47:31.219Z,6.03
2024-02-24T09:49:58.936Z,6.00
2024-02-24T09:52:25.843Z,3.53
2024-02-24T09:54:52.651Z,4.55
2024-02-24T09:57:24.693Z,3.40
2024-02-24T09:59:52.243Z,4.50
2024-02-24T10:02:20.641Z,4.40
2024-02-24T10:04:48.560Z,6.82
2024-02-24T10:07:15.308Z,9.23
2024-02-24T10:09:42.001Z,8.60
2024-02-24T10:12:08.832Z,6.20
2024-02-24T10:14:35.919Z,4.57
2024-02-24T10:17:03.645Z,5.50
2024-02-24T10:19:32.472Z,3.58
2024-02-24T10:22:02.954Z,3.93
2024-02-24T10:24:31.734Z,4.43
2024-02-24T10:26:58.723Z,5.85
2024-02-24T10:29:32.085Z,5.20
2024-02-24T10:32:00.200Z,5.55
2024-02-24T10:34:28.270Z,7.33
2024-02-24T10:37:02.166Z,4.07
2024-02-24T10:39:35.157Z,7.70
2024-02-24T10:42:06.268Z,5.47
2024-02-24T10:44:35.029Z,4.78
2024-02-24T10:47:03.173Z,5.10
2024-02-24T10:49:30.488Z,4.78
2024-02-24T10:51:58.321Z,6.15
2024-02-24T10:54:31.058Z,4.68
2024-02-24T10:57:01.799Z,5.90
2024-02-24T10:59:29.736Z,5.47
2024-02-24T11:02:04.851Z,4.97
2024-02-24T11:04:38.556Z,6.25
2024-02-24T11:07:16.654Z,4.97
2024-02-24T11:09:51.461Z,4.05
2024-02-24T11:12:22.591Z,5.17
2024-02-24T11:14:50.613Z,4.68
2024-02-24T11:17:45.420Z,7.65
2024-02-24T11:20:12.395Z,4.45
2024-02-24T11:22:39.267Z,5.00
2024-02-24T11:25:07.191Z,6.00
2024-02-24T11:27:41.830Z,5.38
2024-02-24T11:30:37.231Z,6.00
2024-02-24T11:33:28.413Z,7.05
2024-02-24T11:35:57.068Z,5.28
2024-02-24T11:38:26.045Z,4.10
2024-02-24T11:40:53.628Z,5.15
2024-02-24T11:43:20.906Z,7.47
2024-02-24T11:45:48.223Z,7.43
2024-02-24T11:48:16.023Z,7.80
2024-02-24T11:50:43.905Z,7.07
2024-02-24T11:53:12.285Z,5.88
2024-02-24T11:55:39.188Z,5.70
2024-02-24T11:58:09.184Z,4.45
2024-02-24T12:00:40.626Z,3.88
2024-02-24T12:03:17.545Z,7.57
2024-02-24T12:05:44.872Z,5.45
2024-02-24T12:08:15.690Z,6.35
2024-02-24T12:10:42.668Z,9.48
2024-02-24T12:13:14.477Z,7.93
2024-02-24T12:15:45.192Z,8.93
2024-02-24T12:18:12.521Z,4.30
2024-02-24T12:20:41.000Z,4.82
2024-02-24T12:23:09.379Z,6.97
2024-02-24T12:25:36.541Z,5.28
2024-02-24T12:28:05.266Z,6.20
2024-02-24T12:30:39.949Z,6.22
2024-02-24T12:33:08.219Z,5.05
2024-02-24T12:35:37.802Z,7.97
2024-02-24T12:38:05.309Z,5.50
2024-02-24T12:40:32.903Z,6.10
2024-02-24T12:43:01.163Z,5.40
2024-02-24T12:45:28.773Z,7.32
2024-02-24T12:47:56.287Z,4.35
2024-02-24T12:50:24.892Z,5.95
2024-02-24T12:52:52.850Z,6.07
2024-02-24T12:55:20.432Z,5.07
2024-02-24T12:57:47.149Z,5.10
2024-02-24T13:00:14.498Z,6.38
2024-02-24T13:02:41.955Z,5.65
2024-02-24T13:05:10.399Z,5.77
2024-02-24T13:07:37.182Z,4.68
2024-02-24T13:10:04.253Z,6.43
2024-02-24T13:12:31.308Z,8.32
2024-02-24T13:14:58.528Z,6.47
2024-02-24T13:17:26.542Z,4.63
2024-02-24T13:19:53.557Z,6.30
2024-02-24T13:22:21.261Z,7.00
2024-02-24T13:24:48.109Z,6.72
2024-02-24T13:27:14.880Z,7.28
2024-02-24T13:29:41.643Z,10.40
2024-02-24T13:32:08.526Z,8.10
2024-02-24T13:34:35.338Z,5.85
2024-02-24T13:37:02.097Z,5.10
2024-02-24T13:39:28.934Z,9.60
2024-02-24T13:41:56.165Z,7.93
2024-02-24T13:44:23.130Z,6.45
2024-02-24T13:46:50.507Z,6.05
2024-02-24T13:49:19.450Z,6.35
2024-02-24T13:51:49.394Z,6.63
2024-02-24T13:54:16.888Z,5.80
2024-02-24T13:56:43.694Z,6.88
2024-02-24T13:59:10.517Z,9.80
2024-02-24T14:01:37.331Z,6.68
2024-02-24T14:04:04.217Z,11.20
2024-02-24T14:06:31.285Z,8.30
2024-02-24T14:09:00.332Z,8.98
2024-02-24T14:11:27.306Z,7.60
2024-02-24T14:13:54.355Z,6.63
2024-02-24T14:16:21.233Z,7.72
2024-02-24T14:18:48.217Z,7.67
2024-02-24T14:21:15.188Z,7.05
2024-02-24T14:23:42.067Z,8.05
2024-02-24T14:26:08.874Z,7.38
2024-02-24T14:28:35.605Z,9.02
2024-02-24T14:31:02.386Z,9.27
2024-02-24T14:33:29.456Z,9.20
2024-02-24T14:35:56.426Z,8.18
2024-02-24T14:38:23.240Z,10.25
2024-02-24T14:40:53.293Z,7.28
2024-02-24T14:43:20.330Z,8.43
2024-02-24T14:45:47.039Z,8.75
2024-02-24T14:48:13.937Z,9.35
2024-02-24T14:50:41.801Z,9.90
2024-02-24T14:53:08.648Z,7.68
2024-02-24T14:55:36.611Z,7.27
2024-02-24T14:58:04.836Z,7.32
2024-02-24T15:00:31.942Z,6.47
2024-02-24T15:03:08.946Z,9.32
2024-02-24T15:05:38.344Z,8.48
2024-02-24T15:08:05.526Z,9.97
2024-02-24T15:10:32.291Z,8.45
2024-02-24T15:12:59.072Z,10.98
2024-02-24T15:15:25.884Z,8.10
2024-02-24T15:17:53.946Z,10.88
2024-02-24T15:20:21.953Z,9.57
2024-02-24T15:22:49.406Z,11.15
2024-02-24T15:25:16.608Z,8.52
2024-02-24T15:27:43.723Z,4.07
2024-02-24T15:30:11.506Z,8.05
2024-02-24T15:32:38.667Z,9.47
2024-02-24T15:35:06.296Z,9.10
2024-02-24T15:37:35.458Z,11.48
2024-02-24T15:40:08.640Z,15.40
2024-02-24T15:42:36.672Z,11.77
2024-02-24T15:45:04.443Z,10.27
2024-02-24T15:47:31.713Z,8.43
2024-02-24T15:49:58.551Z,7.95
2024-02-24T15:52:25.307Z,9.45
2024-02-24T15:54:53.015Z,9.23
2024-02-24T15:57:19.676Z,8.27
2024-02-24T15:59:46.592Z,12.63
2024-02-24T16:02:13.632Z,8.10
2024-02-24T16:04:40.534Z,9.65
2024-02-24T16:07:08.529Z,8.05
2024-02-24T16:09:37.044Z,10.93
2024-02-24T16:12:04.826Z,8.20
2024-02-24T16:14:31.630Z,8.98
2024-02-24T16:16:58.387Z,9.05
2024-02-24T16:19:25.195Z,11.60
2024-02-24T16:21:51.941Z,5.67
2024-02-24T16:24:19.357Z,5.07
2024-02-24T16:26:49.942Z,8.27
2024-02-24T16:29:17.099Z,7.78
2024-02-24T16:31:44.055Z,8.23
2024-02-24T16:34:11.254Z,5.13
2024-02-24T16:36:38.226Z,7.28
2024-02-24T16:39:11.180Z,7.03
2024-02-24T16:41:39.723Z,7.05
2024-02-24T16:44:09.682Z,7.15
2024-02-24T16:46:44.074Z,7.40
2024-02-24T16:49:11.054Z,7.38
2024-02-24T16:51:37.830Z,7.80
2024-02-24T16:54:04.696Z,11.95
2024-02-24T16:56:32.830Z,7.90
2024-02-24T16:59:00.939Z,7.10
2024-02-24T17:01:28.663Z,6.22
2024-02-24T17:03:55.611Z,8.35
2024-02-24T17:06:22.503Z,8.05
2024-02-24T17:08:50.121Z,9.48
2024-02-24T17:11:20.999Z,10.63
2024-02-24T17:13:47.915Z,4.85
2024-02-24T17:16:15.973Z,6.93
2024-02-24T17:18:42.935Z,6.35
2024-02-24T17:21:10.113Z,9.45
2024-02-24T17:23:43.746Z,8.87
2024-02-24T17:26:10.866Z,7.80
2024-02-24T17:28:37.552Z,9.05
2024-02-24T17:31:05.118Z,11.00
2024-02-24T17:33:31.889Z,7.78
2024-02-24T17:35:58.892Z,9.33
2024-02-24T17:38:27.475Z,8.05
2024-02-24T17:40:55.281Z,7.65
2024-02-24T17:43:22.497Z,6.63
2024-02-24T17:45:50.219Z,9.60
2024-02-24T17:48:18.094Z,10.00
2024-02-24T17:50:44.959Z,8.43
2024-02-24T17:53:12.602Z,8.73
2024-02-24T17:55:39.499Z,8.35
2024-02-24T17:58:07.957Z,11.13
2024-02-24T18:00:35.534Z,10.37
2024-02-24T18:03:02.409Z,10.38
2024-02-24T18:05:29.709Z,10.07
2024-02-24T18:07:57.349Z,8.68
2024-02-24T18:10:24.893Z,10.30
2024-02-24T18:12:53.481Z,9.03
2024-02-24T18:15:21.279Z,9.30
2024-02-24T18:17:48.274Z,8.98
2024-02-24T18:20:17.374Z,11.85
2024-02-24T18:22:45.386Z,12.60
2024-02-24T18:25:12.534Z,11.27
2024-02-24T18:27:39.339Z,9.68
2024-02-24T18:30:07.060Z,11.98
2024-02-24T18:32:34.103Z,12.63
2024-02-24T18:35:00.919Z,8.82
2024-02-24T18:37:27.583Z,11.27
2024-02-24T18:39:56.377Z,9.18
2024-02-24T18:42:23.885Z,11.52
2024-02-24T18:44:50.893Z,11.02
2024-02-24T18:47:17.804Z,11.75
2024-02-24T18:49:44.655Z,9.70
2024-02-24T18:52:12.908Z,11.48
2024-02-24T18:54:39.953Z,11.60
2024-02-24T18:57:06.790Z,14.02
2024-02-24T18:59:33.733Z,21.70
2024-02-24T19:02:00.575Z,12.23
2024-02-24T19:04:27.354Z,11.50
2024-02-24T19:06:54.130Z,9.98
2024-02-24T19:09:21.317Z,15.07
2024-02-24T19:11:48.815Z,14.45
2024-02-24T19:14:15.774Z,15.70
2024-02-24T19:16:42.677Z,16.27
2024-02-24T19:19:09.571Z,15.13
2024-02-24T19:21:36.393Z,12.80
2024-02-24T19:24:03.446Z,12.68
2024-02-24T19:26:30.281Z,13.00
2024-02-24T19:28:56.997Z,12.77
2024-02-24T19:31:25.161Z,14.60
2024-02-24T19:33:52.034Z,15.27
2024-02-24T19:36:18.917Z,13.32
2024-02-24T19:38:45.782Z,17.60
2024-02-24T19:41:12.543Z,15.13
2024-02-24T19:43:39.638Z,12.90
2024-02-24T19:46:06.411Z,13.55
2024-02-24T19:48:33.163Z,17.30
2024-02-24T19:51:00.735Z,18.07
2024-02-24T19:53:27.511Z,20.73
2024-02-24T19:55:55.472Z,17.38
2024-02-24T19:58:31.583Z,16.30
2024-02-24T20:01:01.975Z,19.58
2024-02-24T20:03:28.750Z,18.90
2024-02-24T20:05:55.735Z,16.88
2024-02-24T20:08:22.530Z,16.27
2024-02-24T20:10:50.781Z,15.85
2024-02-24T20:13:17.523Z,17.38
2024-02-24T20:15:44.260Z,18.23
2024-02-24T20:18:11.112Z,15.38
2024-02-24T20:20:37.971Z,19.73
2024-02-24T20:23:04.939Z,13.05
2024-02-24T20:25:31.595Z,13.77
2024-02-24T20:27:58.293Z,16.77
2024-02-24T20:30:25.070Z,16.42
2024-02-24T20:32:54.829Z,13.43
2024-02-24T20:35:22.052Z,15.57
2024-02-24T20:37:48.843Z,13.93
2024-02-24T20:40:16.573Z,13.77
2024-02-24T20:42:43.310Z,14.40
2024-02-24T20:45:10.389Z,14.02
2024-02-24T20:47:37.185Z,11.90
2024-02-24T20:50:04.320Z,11.18
2024-02-24T20:52:31.098Z,11.23
2024-02-24T20:54:57.925Z,11.15
2024-02-24T20:57:24.754Z,12.70
2024-02-24T20:59:52.019Z,14.52
2024-02-24T21:02:18.888Z,12.38
2024-02-24T21:04:45.695Z,14.20
2024-02-24T21:07:12.582Z,12.77
2024-02-24T21:09:39.382Z,13.63
2024-02-24T21:12:08.422Z,16.45
2024-02-24T21:14:35.310Z,15.00
2024-02-24T21:17:02.067Z,16.27
2024-02-24T21:19:29.741Z,14.40
2024-02-24T21:21:58.326Z,12.82
2024-02-24T21:24:25.059Z,10.18
2024-02-24T21:26:51.938Z,10.43
2024-02-24T21:29:18.671Z,12.23
2024-02-24T21:31:45.420Z,10.55
2024-02-24T21:34:12.383Z,12.95
2024-02-24T21:36:39.110Z,13.57
2024-02-24T21:39:05.959Z,10.85
2024-02-24T21:41:37.375Z,8.73
2024-02-24T21:44:05.258Z,9.52
2024-02-24T21:46:33.430Z,9.50
2024-02-24T21:49:00.679Z,9.68
2024-02-24T21:51:27.667Z,10.60
2024-02-24T21:53:54.504Z,11.70
2024-02-24T21:56:24.596Z,12.07
2024-02-24T21:58:51.509Z,10.07
2024-02-24T22:01:20.220Z,11.43
2024-02-24T22:03:47.115Z,12.02
2024-02-24T22:06:14.079Z,8.70
2024-02-24T22:08:40.949Z,12.88
2024-02-24T22:11:07.994Z,12.65
2024-02-24T22:13:34.746Z,10.20
2024-02-24T22:16:01.455Z,10.60
2024-02-24T22:18:28.353Z,10.90
2024-02-24T22:20:55.328Z,9.32
2024-02-24T22:23:22.192Z,9.50
2024-02-24T22:25:48.906Z,10.25
2024-02-24T22:28:15.915Z,8.15
2024-02-24T22:30:42.814Z,7.30
2024-02-24T22:33:09.702Z,8.82
2024-02-24T22:35:38.088Z,11.02
2024-02-24T22:38:04.933Z,10.70
2024-02-24T22:40:33.016Z,8.48
2024-02-24T22:43:00.019Z,10.23
2024-02-24T22:45:26.837Z,13.00
2024-02-24T22:47:53.692Z,12.20
2024-02-24T22:50:20.600Z,9.95
2024-02-24T22:52:47.314Z,12.48
2024-02-24T22:55:14.103Z,11.20
2024-02-24T22:57:40.939Z,11.18
2024-02-24T23:00:14.289Z,10.10
2024-02-24T23:02:41.521Z,10.65
2024-02-24T23:05:08.373Z,9.00
2024-02-24T23:07:35.146Z,9.13
2024-02-24T23:10:02.552Z,8.95
2024-02-24T23:12:29.723Z,7.38
2024-02-24T23:14:56.602Z,8.75
2024-02-24T23:17:24.487Z,7.28
2024-02-24T23:19:51.377Z,9.60
2024-02-24T23:22:18.177Z,10.27
2024-02-24T23:24:45.031Z,6.72
2024-02-24T23:27:12.026Z,13.50
2024-02-24T23:29:39.213Z,7.28
2024-02-24T23:32:06.509Z,7.80
2024-02-24T23:34:33.371Z,11.75
2024-02-24T23:37:01.184Z,9.48
2024-02-24T23:39:28.096Z,10.63
2024-02-24T23:41:54.943Z,8.77
2024-02-24T23:44:21.740Z,12.00
2024-02-24T23:46:48.547Z,11.65
2024-02-24T23:49:17.144Z,11.00
2024-02-24T23:51:44.619Z,9.60
2024-02-24T23:54:11.385Z,9.00
2024-02-24T23:56:38.295Z,8.83
2024-02-24T23:59:05.072Z,8.73
